createdAt,value
2022-08-28T00:01:28.468Z,101502.81
2022-08-28T00:03:56.677Z,101509.03
2022-08-28T00:06:24.752Z,101506.81
2022-08-28T00:08:57.032Z,101500.38
2022-08-28T00:11:25.507Z,101501.19
2022-08-28T00:13:56.673Z,101491.16
2022-08-28T00:16:26.538Z,101498.22
2022-08-28T00:18:57.450Z,101498.84
2022-08-28T00:21:25.905Z,101498.81
2022-08-28T00:23:56.029Z,101494.97
2022-08-28T00:26:39.196Z,101493.41
2022-08-28T00:29:08.792Z,101498.94
2022-08-28T00:31:40.628Z,101497.03
2022-08-28T00:34:12.533Z,101500.03
2022-08-28T00:36:41.526Z,101501.22
2022-08-28T00:39:14.125Z,101496.72
2022-08-28T00:41:45.256Z,101500.75
2022-08-28T00:44:15.790Z,101498.81
2022-08-28T00:46:47.630Z,101511.19
2022-08-28T00:49:18.405Z,101510.19
2022-08-28T00:52:05.236Z,101505.78
2022-08-28T00:54:38.528Z,101511.66
2022-08-28T00:57:11.630Z,101495.91
2022-08-28T00:59:40.037Z,101505.81
2022-08-28T01:02:09.617Z,101512.84
2022-08-28T01:04:38.404Z,101513.44
2022-08-28T01:07:09.506Z,101504.81
2022-08-28T01:09:44.440Z,101509.69
2022-08-28T01:12:19.309Z,101512.22
2022-08-28T01:14:51.388Z,101503.41
2022-08-28T01:17:23.859Z,101504.50
2022-08-28T01:19:58.495Z,101507.91
2022-08-28T01:22:35.413Z,101506.22
2022-08-28T01:25:08.747Z,101506.72
2022-08-28T01:27:37.222Z,101503.88
2022-08-28T01:30:05.897Z,101501.31
2022-08-28T01:32:36.813Z,101501.66
2022-08-28T01:35:06.339Z,101497.69
2022-08-28T01:37:35.031Z,101503.88
2022-08-28T01:40:05.276Z,101509.47
2022-08-28T01:42:38.847Z,101496.22
2022-08-28T01:45:11.221Z,101506.19
2022-08-28T01:47:39.536Z,101510.91
2022-08-28T01:50:10.305Z,101515.31
2022-08-28T01:52:39.460Z,101517.31
2022-08-28T01:55:11.349Z,101528.97
2022-08-28T01:57:45.101Z,101531.84
2022-08-28T02:00:16.258Z,101531.00
2022-08-28T02:02:44.619Z,101526.28
2022-08-28T02:05:13.166Z,101522.59
2022-08-28T02:07:42.236Z,101534.38
2022-08-28T02:10:12.421Z,101528.13
2022-08-28T02:12:43.387Z,101531.69
2022-08-28T02:15:14.302Z,101530.72
2022-08-28T02:17:42.585Z,101526.16
2022-08-28T02:20:12.729Z,101534.56
2022-08-28T02:22:41.413Z,101528.28
2022-08-28T02:25:12.439Z,101526.22
2022-08-28T02:27:41.156Z,101523.81
2022-08-28T02:30:13.203Z,101531.06
2022-08-28T02:32:41.776Z,101526.66
2022-08-28T02:35:16.711Z,101524.97
2022-08-28T02:37:47.663Z,101537.47
2022-08-28T02:40:23.747Z,101531.75
2022-08-28T02:42:53.117Z,101535.31
2022-08-28T02:45:25.255Z,101525.75
2022-08-28T02:47:55.008Z,101525.28
2022-08-28T02:50:25.496Z,101528.69
2022-08-28T02:52:54.310Z,101526.81
2022-08-28T02:55:24.761Z,101533.94
2022-08-28T02:57:54.752Z,101544.47
2022-08-28T03:00:25.825Z,101531.94
2022-08-28T03:02:55.159Z,101525.34
2022-08-28T03:05:27.395Z,101520.97
2022-08-28T03:07:56.486Z,101526.66
2022-08-28T03:10:28.436Z,101526.28
2022-08-28T03:12:56.738Z,101526.28
2022-08-28T03:15:26.616Z,101518.56
2022-08-28T03:17:55.584Z,101515.72
2022-08-28T03:20:24.411Z,101519.94
2022-08-28T03:23:09.987Z,101516.22
2022-08-28T03:25:40.246Z,101519.66
2022-08-28T03:28:08.624Z,101514.78
2022-08-28T03:30:37.004Z,101516.50
2022-08-28T03:33:05.727Z,101519.03
2022-08-28T03:35:34.724Z,101515.31
2022-08-28T03:38:03.239Z,101507.53
2022-08-28T03:40:32.436Z,101515.63
2022-08-28T03:43:04.824Z,101505.13
2022-08-28T03:45:35.603Z,101508.50
2022-08-28T03:48:05.159Z,101506.69
2022-08-28T03:50:33.323Z,101509.06
2022-08-28T03:53:03.227Z,101510.75
2022-08-28T03:55:34.183Z,101515.31
2022-08-28T03:58:04.941Z,101520.88
2022-08-28T04:00:34.835Z,101518.84
2022-08-28T04:03:04.601Z,101517.03
2022-08-28T04:05:35.369Z,101517.88
2022-08-28T04:08:03.782Z,101513.00
2022-08-28T04:10:33.256Z,101521.94
2022-08-28T04:13:02.094Z,101520.50
2022-08-28T04:15:32.183Z,101523.91
2022-08-28T04:18:00.550Z,101523.59
2022-08-28T04:20:29.830Z,101520.72
2022-08-28T04:23:01.442Z,101522.13
2022-08-28T04:25:30.622Z,101515.06
2022-08-28T04:27:59.098Z,101527.09
2022-08-28T04:30:27.240Z,101523.47
2022-08-28T04:32:56.962Z,101517.13
2022-08-28T04:35:26.054Z,101528.88
2022-08-28T04:37:58.657Z,101527.41
2022-08-28T04:40:27.351Z,101531.84
2022-08-28T04:42:55.855Z,101531.56
2022-08-28T04:45:24.379Z,101534.63
2022-08-28T04:47:52.656Z,101531.38
2022-08-28T04:50:22.475Z,101533.63
2022-08-28T04:52:52.696Z,101536.50
2022-08-28T04:55:33.823Z,101539.03
2022-08-28T04:58:10.123Z,101545.84
2022-08-28T05:00:39.733Z,101546.84
2022-08-28T05:03:08.112Z,101543.50
2022-08-28T05:05:44.725Z,101543.50
2022-08-28T05:08:14.918Z,101543.13
2022-08-28T05:10:44.346Z,101548.56
2022-08-28T05:13:13.542Z,101555.53
2022-08-28T05:15:42.716Z,101549.94
2022-08-28T05:18:11.178Z,101559.94
2022-08-28T05:20:44.191Z,101556.22
2022-08-28T05:23:13.875Z,101561.13
2022-08-28T05:25:44.708Z,101566.84
2022-08-28T05:28:13.931Z,101569.94
2022-08-28T05:30:44.055Z,101571.81
2022-08-28T05:33:15.125Z,101572.81
2022-08-28T05:35:46.936Z,101584.88
2022-08-28T05:38:18.209Z,101580.13
2022-08-28T05:40:50.308Z,101587.59
2022-08-28T05:43:19.793Z,101583.22
2022-08-28T05:45:57.907Z,101584.94
2022-08-28T05:48:30.394Z,101582.91
2022-08-28T05:51:08.037Z,101579.53
2022-08-28T05:53:38.867Z,101587.19
2022-08-28T05:56:09.242Z,101582.31
2022-08-28T05:58:40.769Z,101591.50
2022-08-28T06:01:11.985Z,101593.06
2022-08-28T06:03:41.485Z,101594.25
2022-08-28T06:06:13.283Z,101597.88
2022-08-28T06:08:58.377Z,101606.53
2022-08-28T06:11:31.197Z,101609.25
2022-08-28T06:14:02.606Z,101602.19
2022-08-28T06:16:33.175Z,101602.38
2022-08-28T06:19:01.810Z,101607.97
2022-08-28T06:21:36.319Z,101605.59
2022-08-28T06:24:05.430Z,101607.13
2022-08-28T06:26:34.071Z,101615.44
2022-08-28T06:29:03.061Z,101622.75
2022-08-28T06:31:34.039Z,101614.81
2022-08-28T06:34:02.857Z,101627.03
2022-08-28T06:36:35.196Z,101627.38
2022-08-28T06:39:05.882Z,101627.41
2022-08-28T06:41:35.675Z,101628.47
2022-08-28T06:44:04.233Z,101625.06
2022-08-28T06:46:33.407Z,101624.91
2022-08-28T06:49:04.417Z,101624.41
2022-08-28T06:51:35.685Z,101625.78
2022-08-28T06:54:04.713Z,101623.91
2022-08-28T06:56:33.348Z,101623.72
2022-08-28T06:59:01.861Z,101627.13
2022-08-28T07:01:33.536Z,101627.81
2022-08-28T07:04:06.727Z,101631.75
2022-08-28T07:06:44.142Z,101635.78
2022-08-28T07:09:13.564Z,101635.78
2022-08-28T07:11:45.698Z,101641.56
2022-08-28T07:14:14.114Z,101642.06
2022-08-28T07:16:45.103Z,101642.72
2022-08-28T07:19:15.102Z,101638.63
2022-08-28T07:21:46.716Z,101647.97
2022-08-28T07:24:16.679Z,101650.50
2022-08-28T07:26:47.146Z,101655.59
2022-08-28T07:29:16.249Z,101659.84
2022-08-28T07:31:47.701Z,101652.84
2022-08-28T07:34:17.679Z,101652.50
2022-08-28T07:36:48.306Z,101652.63
2022-08-28T07:39:17.106Z,101656.16
2022-08-28T07:41:46.191Z,101662.06
2022-08-28T07:44:34.279Z,101662.69
2022-08-28T07:47:06.807Z,101664.03
2022-08-28T07:49:37.397Z,101666.31
2022-08-28T07:52:09.416Z,101666.47
2022-08-28T07:54:40.644Z,101665.44
2022-08-28T07:57:11.080Z,101668.03
2022-08-28T07:59:42.419Z,101675.31
2022-08-28T08:02:11.630Z,101674.69
2022-08-28T08:04:40.191Z,101672.25
2022-08-28T08:07:09.999Z,101681.72
2022-08-28T08:09:39.917Z,101684.19
2022-08-28T08:12:10.393Z,101685.84
2022-08-28T08:14:39.417Z,101686.28
2022-08-28T08:17:08.141Z,101686.88
2022-08-28T08:19:37.239Z,101685.38
2022-08-28T08:22:07.895Z,101694.78
2022-08-28T08:24:37.667Z,101685.13
2022-08-28T08:27:07.089Z,101684.34
2022-08-28T08:29:40.564Z,101690.59
2022-08-28T08:32:11.569Z,101692.38
2022-08-28T08:34:43.106Z,101694.63
2022-08-28T08:37:11.886Z,101692.81
2022-08-28T08:39:54.848Z,101694.03
2022-08-28T08:42:27.612Z,101696.00
2022-08-28T08:44:59.279Z,101695.47
2022-08-28T08:47:37.001Z,101689.75
2022-08-28T08:50:08.661Z,101693.25
2022-08-28T08:52:41.811Z,101689.63
2022-08-28T08:55:22.174Z,101694.59
2022-08-28T08:57:57.154Z,101695.81
2022-08-28T09:00:25.942Z,101698.03
2022-08-28T09:03:02.711Z,101690.56
2022-08-28T09:05:42.829Z,101686.06
2022-08-28T09:08:21.574Z,101692.53
2022-08-28T09:11:01.089Z,101691.78
2022-08-28T09:13:41.719Z,101688.72
2022-08-28T09:16:23.224Z,101686.81
2022-08-28T09:18:52.390Z,101687.91
2022-08-28T09:21:32.509Z,101686.44
2022-08-28T09:24:11.831Z,101693.06
2022-08-28T09:26:41.991Z,101692.44
2022-08-28T09:29:18.642Z,101699.22
2022-08-28T09:31:46.951Z,101694.16
2022-08-28T09:34:23.748Z,101703.44
2022-08-28T09:36:53.521Z,101699.25
2022-08-28T09:39:25.027Z,101701.75
2022-08-28T09:42:17.627Z,101703.03
2022-08-28T09:45:02.672Z,101694.41
2022-08-28T09:47:46.611Z,101698.81
2022-08-28T09:50:35.285Z,101701.78
2022-08-28T09:53:20.819Z,101705.81
2022-08-28T09:55:58.453Z,101704.78
2022-08-28T09:58:34.848Z,101709.41
2022-08-28T10:01:11.810Z,101709.00
2022-08-28T10:03:50.178Z,101703.50
2022-08-28T10:06:26.937Z,101708.38
2022-08-28T10:09:10.437Z,101711.09
2022-08-28T10:11:46.313Z,101715.34
2022-08-28T10:14:29.681Z,101705.59
2022-08-28T10:17:08.023Z,101711.50
2022-08-28T10:19:46.890Z,101703.50
2022-08-28T10:22:30.866Z,101706.00
2022-08-28T10:25:13.540Z,101709.19
2022-08-28T10:27:55.534Z,101706.41
2022-08-28T10:30:26.273Z,101712.13
2022-08-28T10:33:24.082Z,101694.81
2022-08-28T10:35:58.694Z,101693.75
2022-08-28T10:38:40.069Z,101701.75
2022-08-28T10:41:14.149Z,101698.50
2022-08-28T10:43:48.005Z,101693.13
2022-08-28T10:46:27.334Z,101704.69
2022-08-28T10:49:01.253Z,101704.78
2022-08-28T10:51:37.644Z,101702.19
2022-08-28T10:54:20.629Z,101702.56
2022-08-28T10:56:56.303Z,101698.34
2022-08-28T10:59:26.922Z,101698.34
2022-08-28T11:02:02.754Z,101692.41
2022-08-28T11:04:36.007Z,101697.44
2022-08-28T11:07:10.798Z,101699.94
2022-08-28T11:10:03.289Z,101694.84
2022-08-28T11:15:51.092Z,101693.25
2022-08-28T11:19:06.540Z,101699.84
2022-08-28T11:21:42.773Z,101691.28
2022-08-28T11:24:26.257Z,101689.31
2022-08-28T11:27:08.003Z,101687.81
2022-08-28T11:29:58.764Z,101693.28
2022-08-28T11:32:57.444Z,101694.56
2022-08-28T11:35:50.792Z,101695.78
2022-08-28T11:38:57.987Z,101691.06
2022-08-28T11:41:30.779Z,101696.13
2022-08-28T11:45:09.860Z,101702.81
2022-08-28T11:48:16.124Z,101699.06
2022-08-28T11:51:30.393Z,101692.50
2022-08-28T11:54:13.621Z,101691.56
2022-08-28T11:56:54.577Z,101693.72
2022-08-28T12:00:01.024Z,101691.09
2022-08-28T12:02:51.339Z,101706.31
2022-08-28T12:05:45.435Z,101695.69
2022-08-28T12:08:15.412Z,101707.66
2022-08-28T12:10:59.177Z,101707.09
2022-08-28T12:13:50.061Z,101717.56
2022-08-28T12:16:32.558Z,101712.22
2022-08-28T12:19:04.355Z,101705.47
2022-08-28T12:21:41.736Z,101704.72
2022-08-28T12:24:23.125Z,101714.03
2022-08-28T12:26:57.023Z,101698.75
2022-08-28T12:29:34.252Z,101702.91
2022-08-28T12:32:30.657Z,101705.44
2022-08-28T12:35:16.944Z,101707.75
2022-08-28T12:37:52.131Z,101701.41
2022-08-28T12:40:25.048Z,101712.81
2022-08-28T12:42:58.652Z,101704.53
2022-08-28T12:45:34.909Z,101702.97
2022-08-28T12:48:11.281Z,101704.66
2022-08-28T12:50:41.533Z,101708.97
2022-08-28T12:53:16.666Z,101708.25
2022-08-28T12:55:46.976Z,101708.97
2022-08-28T12:58:16.323Z,101702.72
2022-08-28T13:00:57.121Z,101707.41
2022-08-28T13:03:26.132Z,101701.19
2022-08-28T13:06:05.219Z,101702.59
2022-08-28T13:08:35.809Z,101699.13
2022-08-28T13:11:05.286Z,101694.78
2022-08-28T13:13:38.716Z,101692.56
2022-08-28T13:16:37.939Z,101698.78
2022-08-28T13:19:35.686Z,101691.47
2022-08-28T13:25:55.629Z,101688.97
2022-08-28T13:28:24.794Z,101691.22
2022-08-28T13:31:00.540Z,101688.22
2022-08-28T13:33:36.163Z,101691.47
2022-08-28T13:36:25.676Z,101683.28
2022-08-28T13:39:36.060Z,101685.19
2022-08-28T13:42:09.969Z,101680.88
2022-08-28T13:44:48.822Z,101684.03
2022-08-28T13:47:22.403Z,101682.81
2022-08-28T13:49:53.465Z,101677.63
2022-08-28T13:52:21.711Z,101679.28
2022-08-28T13:54:51.426Z,101675.34
2022-08-28T13:57:19.950Z,101667.06
2022-08-28T13:59:52.373Z,101667.28
2022-08-28T14:02:42.979Z,101666.97
2022-08-28T14:05:14.098Z,101663.44
2022-08-28T14:07:52.460Z,101665.06
2022-08-28T14:10:21.918Z,101663.38
2022-08-28T14:12:56.922Z,101664.47
2022-08-28T14:15:25.969Z,101656.19
2022-08-28T14:17:55.805Z,101660.19
2022-08-28T14:20:42.655Z,101658.47
2022-08-28T14:23:11.858Z,101655.13
2022-08-28T14:25:44.168Z,101662.31
2022-08-28T14:28:15.173Z,101655.13
2022-08-28T14:30:48.333Z,101651.28
2022-08-28T14:33:18.976Z,101641.31
2022-08-28T14:35:54.219Z,101643.50
2022-08-28T14:38:24.050Z,101641.56
2022-08-28T14:40:55.120Z,101645.25
2022-08-28T14:43:26.376Z,101644.75
2022-08-28T14:45:56.331Z,101641.19
2022-08-28T14:48:25.500Z,101642.09
2022-08-28T14:50:57.366Z,101642.72
2022-08-28T14:53:26.437Z,101643.75
2022-08-28T14:55:55.575Z,101632.84
2022-08-28T14:58:24.224Z,101636.22
2022-08-28T15:00:53.427Z,101641.13
2022-08-28T15:03:21.890Z,101637.75
2022-08-28T15:06:02.787Z,101635.28
2022-08-28T15:08:35.464Z,101635.13
2022-08-28T15:11:07.952Z,101633.88
2022-08-28T15:13:37.653Z,101635.19
2022-08-28T15:16:15.710Z,101638.63
2022-08-28T15:18:46.266Z,101637.81
2022-08-28T15:21:22.772Z,101634.44
2022-08-28T15:23:52.026Z,101638.22
2022-08-28T15:26:21.995Z,101641.19
2022-08-28T15:28:55.980Z,101647.16
2022-08-28T15:31:26.508Z,101640.19
2022-08-28T15:33:55.479Z,101649.59
2022-08-28T15:36:25.361Z,101649.91
2022-08-28T15:39:11.084Z,101647.47
2022-08-28T15:41:39.615Z,101641.97
2022-08-28T15:44:10.965Z,101639.44
2022-08-28T15:46:50.361Z,101648.56
2022-08-28T15:49:20.200Z,101647.03
2022-08-28T15:52:00.721Z,101644.16
2022-08-28T15:54:30.072Z,101648.69
2022-08-28T15:57:07.861Z,101646.22
2022-08-28T15:59:49.161Z,101647.75
2022-08-28T16:02:22.861Z,101644.19
2022-08-28T16:04:59.785Z,101647.69
2022-08-28T16:07:29.955Z,101643.16
2022-08-28T16:09:58.518Z,101650.66
2022-08-28T16:12:32.283Z,101649.53
2022-08-28T16:15:00.906Z,101648.56
2022-08-28T16:17:32.646Z,101650.81
2022-08-28T16:20:01.540Z,101643.50
2022-08-28T16:22:32.925Z,101645.00
2022-08-28T16:25:02.609Z,101651.22
2022-08-28T16:27:42.861Z,101655.13
2022-08-28T16:30:16.139Z,101657.56
2022-08-28T16:32:46.824Z,101655.22
2022-08-28T16:35:16.408Z,101653.78
2022-08-28T16:37:46.255Z,101649.25
2022-08-28T16:40:15.239Z,101651.53
2022-08-28T16:42:51.331Z,101649.69
2022-08-28T16:45:22.144Z,101646.84
2022-08-28T16:47:53.549Z,101653.88
2022-08-28T16:50:21.989Z,101653.25
2022-08-28T16:52:54.094Z,101652.19
2022-08-28T16:55:23.814Z,101651.81
2022-08-28T17:00:44.368Z,101651.66
2022-08-28T17:03:26.536Z,101645.38
2022-08-28T17:05:58.172Z,101636.53
2022-08-28T17:08:28.025Z,101641.78
2022-08-28T17:10:57.352Z,101636.63
2022-08-28T17:13:40.963Z,101633.72
2022-08-28T17:16:23.996Z,101633.56
2022-08-28T17:19:04.942Z,101642.06
2022-08-28T17:21:52.879Z,101643.63
2022-08-28T17:24:25.004Z,101644.75
2022-08-28T17:26:56.034Z,101635.81
2022-08-28T17:29:29.979Z,101634.94
2022-08-28T17:32:00.946Z,101640.34
2022-08-28T17:34:30.584Z,101635.81
2022-08-28T17:37:06.179Z,101636.31
2022-08-28T17:39:42.310Z,101639.50
2022-08-28T17:42:15.119Z,101641.50
2022-08-28T17:44:47.410Z,101642.94
2022-08-28T17:47:35.767Z,101640.28
2022-08-28T17:50:07.361Z,101645.47
2022-08-28T17:52:36.185Z,101636.69
2022-08-28T17:55:07.633Z,101628.81
2022-08-28T17:57:36.175Z,101628.03
2022-08-28T18:00:06.740Z,101632.31
2022-08-28T18:02:35.511Z,101633.28
2022-08-28T18:05:06.067Z,101637.53
2022-08-28T18:07:34.945Z,101634.63
2022-08-28T18:10:09.985Z,101631.91
2022-08-28T18:12:40.171Z,101633.66
2022-08-28T18:15:13.842Z,101617.38
2022-08-28T18:17:48.193Z,101620.75
2022-08-28T18:20:16.659Z,101630.66
2022-08-28T18:22:46.313Z,101631.91
2022-08-28T18:25:30.364Z,101625.75
2022-08-28T18:27:58.977Z,101632.47
2022-08-28T18:30:28.011Z,101645.06
2022-08-28T18:32:58.552Z,101640.19
2022-08-28T18:35:31.021Z,101642.22
2022-08-28T18:38:03.559Z,101632.94
2022-08-28T18:40:35.141Z,101644.41
2022-08-28T18:43:05.830Z,101638.88
2022-08-28T18:45:34.602Z,101637.75
2022-08-28T18:48:03.524Z,101637.06
2022-08-28T18:50:32.788Z,101642.50
2022-08-28T18:53:01.998Z,101648.25
2022-08-28T18:55:33.439Z,101648.19
2022-08-28T18:58:02.659Z,101635.88
2022-08-28T19:00:36.501Z,101641.06
2022-08-28T19:03:07.786Z,101639.72
2022-08-28T19:05:40.396Z,101649.09
2022-08-28T19:08:12.343Z,101654.41
2022-08-28T19:10:42.830Z,101658.38
2022-08-28T19:13:15.041Z,101661.16
2022-08-28T19:15:44.030Z,101657.03
2022-08-28T19:18:15.609Z,101666.09
2022-08-28T19:20:44.261Z,101669.50
2022-08-28T19:23:17.357Z,101665.34
2022-08-28T19:25:49.288Z,101657.16
2022-08-28T19:28:17.529Z,101661.88
2022-08-28T19:30:47.414Z,101664.47
2022-08-28T19:33:19.182Z,101666.84
2022-08-28T19:35:49.532Z,101668.31
2022-08-28T19:38:20.185Z,101673.34
2022-08-28T19:40:52.476Z,101675.19
2022-08-28T19:43:23.680Z,101677.34
2022-08-28T19:46:00.531Z,101687.34
2022-08-28T19:48:32.070Z,101687.59
2022-08-28T19:51:04.674Z,101686.47
2022-08-28T19:53:34.289Z,101679.91
2022-08-28T19:56:04.396Z,101679.28
2022-08-28T19:58:34.277Z,101687.16
2022-08-28T20:01:02.810Z,101692.28
2022-08-28T20:03:31.676Z,101686.50
2022-08-28T20:06:03.971Z,101691.81
2022-08-28T20:08:34.285Z,101699.47
2022-08-28T20:11:04.150Z,101698.47
2022-08-28T20:13:33.239Z,101690.69
2022-08-28T20:16:05.608Z,101689.97
2022-08-28T20:18:34.622Z,101695.59
2022-08-28T20:21:02.792Z,101693.91
2022-08-28T20:23:33.772Z,101692.69
2022-08-28T20:26:05.066Z,101697.47
2022-08-28T20:28:33.787Z,101691.19
2022-08-28T20:31:02.172Z,101699.69
2022-08-28T20:33:34.966Z,101701.03
2022-08-28T20:36:04.643Z,101694.25
2022-08-28T20:38:35.553Z,101690.19
2022-08-28T20:41:09.091Z,101698.00
2022-08-28T20:43:40.830Z,101702.59
2022-08-28T20:46:15.770Z,101703.72
2022-08-28T20:48:47.673Z,101700.34
2022-08-28T20:51:15.912Z,101704.56
2022-08-28T20:53:45.593Z,101708.50
2022-08-28T20:56:15.672Z,101720.22
2022-08-28T20:58:43.923Z,101713.41
2022-08-28T21:01:14.394Z,101718.00
2022-08-28T21:03:45.785Z,101711.72
2022-08-28T21:06:14.265Z,101714.44
2022-08-28T21:08:42.613Z,101707.31
2022-08-28T21:11:11.458Z,101701.88
2022-08-28T21:13:51.282Z,101706.97
2022-08-28T21:16:20.133Z,101701.00
2022-08-28T21:19:14.089Z,101706.44
2022-08-28T21:21:37.811Z,101711.19
2022-08-28T21:24:08.438Z,101709.69
2022-08-28T21:26:38.389Z,101709.84
2022-08-28T21:29:08.487Z,101709.50
2022-08-28T21:31:36.686Z,101710.69
2022-08-28T21:34:06.657Z,101709.00
2022-08-28T21:36:34.878Z,101701.88
2022-08-28T21:39:03.538Z,101688.94
2022-08-28T21:41:31.764Z,101695.06
2022-08-28T21:44:00.229Z,101697.78
2022-08-28T21:46:30.400Z,101696.44
2022-08-28T21:48:58.889Z,101697.63
2022-08-28T21:51:27.830Z,101695.75
2022-08-28T21:53:56.200Z,101696.44
2022-08-28T21:56:26.804Z,101700.16
2022-08-28T21:59:01.316Z,101697.09
2022-08-28T22:01:31.727Z,101701.16
2022-08-28T22:04:03.608Z,101703.19
2022-08-28T22:06:32.620Z,101705.56
2022-08-28T22:09:01.264Z,101699.63
2022-08-28T22:11:33.093Z,101703.00
2022-08-28T22:14:01.961Z,101700.63
2022-08-28T22:16:31.756Z,101703.50
2022-08-28T22:19:00.028Z,101697.72
2022-08-28T22:21:46.586Z,101701.94
2022-08-28T22:24:14.938Z,101699.72
2022-08-28T22:26:44.360Z,101699.72
2022-08-28T22:29:13.263Z,101703.47
2022-08-28T22:31:46.156Z,101705.16
2022-08-28T22:34:15.331Z,101707.19
2022-08-28T22:36:43.743Z,101710.09
2022-08-28T22:39:12.036Z,101711.56
2022-08-28T22:41:40.475Z,101706.59
2022-08-28T22:44:08.814Z,101707.63
2022-08-28T22:46:37.094Z,101712.53
2022-08-28T22:49:06.857Z,101710.31
2022-08-28T22:51:35.946Z,101713.19
2022-08-28T22:54:04.391Z,101703.50
2022-08-28T22:56:32.583Z,101718.59
2022-08-28T22:59:00.878Z,101716.22
2022-08-28T23:01:30.132Z,101716.38
2022-08-28T23:04:01.564Z,101716.72
2022-08-28T23:06:33.798Z,101717.56
2022-08-28T23:09:05.414Z,101722.66
2022-08-28T23:11:34.855Z,101717.41
2022-08-28T23:14:03.369Z,101717.56
2022-08-28T23:16:31.886Z,101716.88
2022-08-28T23:19:09.581Z,101704.97
2022-08-28T23:21:44.631Z,101706.63
2022-08-28T23:24:13.857Z,101709.84
2022-08-28T23:26:42.199Z,101709.31
2022-08-28T23:29:11.070Z,101712.03
2022-08-28T23:31:40.431Z,101713.53
2022-08-28T23:34:09.267Z,101702.88
2022-08-28T23:36:43.604Z,101708.66
2022-08-28T23:39:13.969Z,101709.97
2022-08-28T23:41:42.860Z,101711.00
2022-08-28T23:44:11.249Z,101710.47
2022-08-28T23:46:41.692Z,101715.38
2022-08-28T23:49:11.138Z,101719.94
2022-08-28T23:51:42.348Z,101725.16
2022-08-28T23:54:13.295Z,101721.78
2022-08-28T23:56:42.169Z,101714.50
2022-08-28T23:59:12.105Z,101720.81
